This is the latest recevied weather packets stored in our database for station/object DL6DBZ-10. If no packets are shown the sender has not sent any weather packets the latest 10 day(s).
| Time | Temp. | Humidity | Pressure | Rain* | Wind** | Luminosity | Snow |
|---|---|---|---|---|---|---|---|
| 1787660245 | 23.33° C | 43% | 1019.8 hPa | - | - | - | - |
| 1787659645 | 23.33° C | 42% | 1019.8 hPa | - | - | - | - |
| 1787659045 | 22.78° C | 44% | 1019.8 hPa | - | - | - | - |
| 1787658444 | 22.22° C | 45% | 1019.9 hPa | - | - | - | - |
| 1787657844 | 22.22° C | 44% | 1019.8 hPa | - | - | - | - |
| 1787657244 | 21.67° C | 46% | 1020.1 hPa | - | - | - | - |
| 1787656644 | 21.11° C | 46% | 1020.1 hPa | - | - | - | - |
| 1787656044 | 20.56° C | 46% | 1020.1 hPa | - | - | - | - |
| 1787655443 | 21.11° C | 45% | 1020.1 hPa | - | - | - | - |
| 1787654843 | 21.11° C | 45% | 1020.1 hPa | - | - | - | - |
| 1787654243 | 20.56° C | 47% | 1020.4 hPa | - | - | - | - |
| 1787653643 | 20.56° C | 47% | 1020.4 hPa | - | - | - | - |
| 1787653042 | 20° C | 48% | 1020.6 hPa | - | - | - | - |
| 1787652442 | 20° C | 48% | 1020.6 hPa | - | - | - | - |
| 1787651842 | 19.44° C | 49% | 1020.5 hPa | - | - | - | - |
| 1787651242 | 19.44° C | 50% | 1020.5 hPa | - | - | - | - |
| 1787650642 | 19.44° C | 51% | 1020.7 hPa | - | - | - | - |
| 1787650041 | 19.44° C | 50% | 1020.7 hPa | - | - | - | - |
| 1787649441 | 19.44° C | 51% | 1020.7 hPa | - | - | - | - |
| 1787648841 | 19.44° C | 50% | 1020.8 hPa | - | - | - | - |
| 1787648240 | 18.89° C | 52% | 1020.8 hPa | - | - | - | - |
| 1787647647 | 18.89° C | 53% | 1020.9 hPa | - | - | - | - |
| 1787647047 | 18.33° C | 54% | 1020.9 hPa | - | - | - | - |
| 1787646447 | 18.89° C | 52% | 1020.8 hPa | - | - | - | - |
| 1787645847 | 17.78° C | 55% | 1020.8 hPa | - | - | - | - |
* Rain since midnight (hover to see other rain measurements)
** Current wind speed in m/s (hover to see current wind gust speed)